Time;durP1;ratioP1;P1;durP2;ratioP2;P2;SDS_P1;SDS_P2;PMS_P1;PMS_P2;Temp;Humidity;BMP_temperature;BMP_pressure;BME280_temperature;BME280_humidity;BME280_pressure;Samples;Min_cycle;Max_cycle;Signal;HPM_P1;HPM_P2
2022/02/10 00:15:30;;;;;;;2.30;1.33;;;9.40;76.80;;;;;;5037917;28;20035;-53
2022/02/10 00:17:34;;;;;;;1.33;1.20;;;9.40;76.10;;;;;;5039609;28;20094;-53
2022/02/10 00:23:09;;;;;;;2.85;1.20;;;9.40;77.10;;;;;;5037537;28;20026;-53
2022/02/10 00:36:12;;;;;;;2.25;1.17;;;9.40;76.70;;;;;;5037618;28;20031;-53
2022/02/10 00:38:45;;;;;;;5.10;1.23;;;9.40;77.10;;;;;;5037353;28;20405;-55
2022/02/10 00:41:11;;;;;;;4.53;1.30;;;9.40;76.50;;;;;;5037281;28;20128;-55
2022/02/10 00:43:37;;;;;;;2.90;1.35;;;9.40;76.60;;;;;;5037395;28;20065;-56
2022/02/10 00:46:02;;;;;;;5.32;1.50;;;9.40;76.80;;;;;;5037634;28;20048;-53
2022/02/10 00:48:30;;;;;;;3.88;1.50;;;9.40;76.70;;;;;;5037372;28;20081;-50
2022/02/10 00:50:58;;;;;;;3.67;1.30;;;9.40;76.50;;;;;;5037633;28;20113;-55
2022/02/10 00:53:27;;;;;;;1.27;1.00;;;9.40;76.50;;;;;;5037576;28;20113;-54
2022/02/10 00:55:53;;;;;;;2.53;1.20;;;9.40;76.70;;;;;;5037527;28;20029;-53
2022/02/10 00:58:29;;;;;;;4.18;1.45;;;9.40;76.30;;;;;;5037471;28;20056;-52
2022/02/10 01:14:33;;;;;;;2.97;1.20;;;9.40;77.00;;;;;;5037102;28;20031;-55
2022/02/10 01:30:22;;;;;;;2.22;1.02;;;9.40;76.50;;;;;;5041225;28;20025;-53
2022/02/10 01:32:52;;;;;;;1.30;0.77;;;9.40;76.40;;;;;;5041049;28;20021;-52
2022/02/10 01:35:22;;;;;;;1.52;0.70;;;9.40;76.20;;;;;;5040927;28;20052;-53
2022/02/10 02:04:59;;;;;;;1.65;0.90;;;9.30;77.60;;;;;;5040412;28;20036;-54
2022/02/10 02:07:29;;;;;;;2.97;0.80;;;9.30;77.80;;;;;;5040181;28;20021;-53
2022/02/10 02:09:55;;;;;;;2.35;1.00;;;9.30;77.80;;;;;;5040256;28;20033;-53
2022/02/10 02:12:21;;;;;;;2.63;0.82;;;9.30;77.70;;;;;;5040123;28;20017;-51
2022/02/10 02:14:47;;;;;;;1.35;0.90;;;9.30;77.70;;;;;;5040045;28;20042;-55
2022/02/10 02:17:13;;;;;;;3.17;0.93;;;9.30;77.90;;;;;;5040446;28;20052;-52
2022/02/10 02:19:39;;;;;;;5.18;1.33;;;9.30;77.90;;;;;;5040180;28;20025;-50
2022/02/10 02:22:06;;;;;;;3.83;1.00;;;9.40;77.90;;;;;;5040132;28;20117;-52
2022/02/10 02:24:33;;;;;;;2.97;0.90;;;9.40;77.70;;;;;;5038593;28;20056;-52
2022/02/10 02:27:02;;;;;;;2.22;0.80;;;9.40;77.70;;;;;;5039840;28;20018;-52
2022/02/10 02:32:06;;;;;;;2.35;1.35;;;9.40;77.60;;;;;;5040025;28;20021;-53
2022/02/10 02:37:21;;;;;;;2.45;1.10;;;9.40;77.50;;;;;;5039860;28;20022;-54
2022/02/10 03:06:40;;;;;;;2.67;0.90;;;9.50;77.50;;;;;;5039131;28;20025;-53
2022/02/10 03:09:14;;;;;;;1.13;0.82;;;9.50;77.50;;;;;;5039006;28;20416;-52
2022/02/10 03:11:42;;;;;;;1.00;0.80;;;9.50;77.30;;;;;;5038846;28;20385;-53
2022/02/10 03:14:12;;;;;;;3.63;1.02;;;9.50;77.30;;;;;;5038880;28;20033;-54
2022/02/10 03:19:51;;;;;;;4.00;0.90;;;9.50;77.40;;;;;;5039031;28;20575;-56
2022/02/10 04:17:06;;;;;;;3.10;1.05;;;8.00;76.80;;;;;;5037796;28;20026;-51
2022/02/10 04:56:03;;;;;;;5.80;2.10;;;7.20;77.70;;;;;;5037770;28;20108;-49
2022/02/10 05:20:11;;;;;;;2.72;1.40;;;6.80;77.20;;;;;;5041199;28;20040;-53
2022/02/10 07:06:51;;;;;;;5.93;2.45;;;5.80;77.40;;;;;;5039627;28;20065;-52
2022/02/10 07:43:24;;;;;;;4.03;1.80;;;5.80;77.40;;;;;;5039059;28;20036;-51
2022/02/10 07:48:06;;;;;;;2.97;1.60;;;6.10;77.30;;;;;;5038241;28;20018;-49
2022/02/10 07:53:07;;;;;;;4.68;1.90;;;6.10;77.30;;;;;;5038113;28;20018;-52
2022/02/10 09:03:35;;;;;;;8.18;4.50;;;9.40;79.10;;;;;;5037744;28;20036;-56
2022/02/10 09:15:56;;;;;;;8.13;4.60;;;9.80;78.30;;;;;;5037487;28;20116;-55
2022/02/10 09:59:28;;;;;;;4.50;2.00;;;11.90;79.70;;;;;;5040785;28;20033;-53
2022/02/10 10:02:33;;;;;;;3.80;1.88;;;12.40;75.60;;;;;;5040616;28;20037;-57
2022/02/10 10:04:57;;;;;;;2.63;1.45;;;12.80;74.00;;;;;;5041184;28;20176;-56
2022/02/10 10:07:48;;;;;;;2.65;1.23;;;13.00;75.50;;;;;;5040786;28;20024;-56
2022/02/10 10:10:59;;;;;;;1.98;1.10;;;13.00;73.60;;;;;;5040674;28;20102;-56
2022/02/10 10:13:36;;;;;;;3.45;1.98;;;13.10;73.30;;;;;;5040184;28;20037;-58
2022/02/10 10:16:37;;;;;;;1.42;1.20;;;13.10;74.40;;;;;;5040675;28;20030;-58
2022/02/10 10:19:13;;;;;;;3.00;1.40;;;13.00;73.40;;;;;;5040488;28;20026;-58
2022/02/10 10:25:02;;;;;;;11.68;5.63;;;12.80;70.60;;;;;;5047064;28;20041;-56
2022/02/10 10:52:10;;;;;;;2.33;0.88;;;12.70;70.60;;;;;;5039578;28;20029;-57
2022/02/10 10:54:46;;;;;;;19.55;8.75;;;12.70;71.50;;;;;;5039933;28;20029;-56
2022/02/10 10:57:20;;;;;;;44.38;26.38;;;12.80;70.20;;;;;;5039531;28;20029;-57
2022/02/10 11:36:44;;;;;;;0.55;0.47;;;16.30;63.20;;;;;;5038530;28;20072;-57
2022/02/10 12:36:40;;;;;;;4.47;1.65;;;12.30;73.40;;;;;;5037926;28;20026;-57
2022/02/10 12:42:30;;;;;;;4.43;1.60;;;12.30;73.60;;;;;;5037365;28;20021;-56
2022/02/10 13:33:15;;;;;;;7.75;2.78;;;11.30;73.60;;;;;;5041282;28;20104;-55
2022/02/10 14:13:37;;;;;;;2.60;0.93;;;15.50;64.60;;;;;;5040509;28;20025;-57
2022/02/10 14:16:26;;;;;;;2.03;0.80;;;15.30;63.70;;;;;;5040555;28;20032;-55
2022/02/10 14:18:55;;;;;;;1.85;0.82;;;15.00;64.60;;;;;;5039809;28;20026;-56
2022/02/10 14:21:29;;;;;;;4.10;1.60;;;14.80;64.10;;;;;;5040074;28;20100;-56
2022/02/10 14:26:31;;;;;;;4.20;2.42;;;14.00;64.10;;;;;;5040148;28;20018;-55
2022/02/10 14:28:56;;;;;;;1.15;1.00;;;13.70;65.00;;;;;;5040285;28;20082;-55
2022/02/10 14:31:22;;;;;;;1.77;1.65;;;13.50;65.70;;;;;;5040380;28;20025;-54
2022/02/10 14:33:50;;;;;;;2.97;2.58;;;13.30;65.80;;;;;;5039925;28;20038;-55
2022/02/10 14:36:26;;;;;;;14.23;13.13;;;13.20;65.80;;;;;;5038968;28;20029;-56
2022/02/10 15:48:02;;;;;;;;;;;10.40;68.50;;;;;;5039320;28;20040;-53
2022/02/10 16:11:11;;;;;;;3.42;0.70;;;10.30;68.80;;;;;;5056561;28;20029;-54
2022/02/10 16:14:35;;;;;;;1.25;0.65;;;10.20;68.60;;;;;;5041090;28;20049;-54
2022/02/10 16:18:51;;;;;;;2.42;0.80;;;10.00;67.70;;;;;;5038387;28;20040;-54
2022/02/10 16:21:28;;;;;;;2.25;0.68;;;9.80;67.70;;;;;;5037909;28;20048;-52
2022/02/10 16:24:01;;;;;;;0.70;0.47;;;9.70;67.30;;;;;;5037811;28;20473;-56
2022/02/10 16:26:40;;;;;;;1.17;0.70;;;9.70;67.90;;;;;;5037990;28;20041;-56
2022/02/10 16:29:09;;;;;;;1.80;0.88;;;9.60;68.20;;;;;;5038062;28;20096;-56
2022/02/10 16:31:35;;;;;;;2.42;1.00;;;9.50;68.30;;;;;;5038201;28;20050;-54
2022/02/10 16:34:01;;;;;;;2.03;1.08;;;9.50;68.10;;;;;;5038156;28;20081;-53
2022/02/10 16:36:30;;;;;;;3.15;0.98;;;9.50;68.10;;;;;;5038094;28;20029;-55
2022/02/10 16:38:56;;;;;;;1.10;1.00;;;9.50;68.10;;;;;;5038058;28;20037;-54
2022/02/10 16:41:22;;;;;;;1.50;1.00;;;9.40;68.00;;;;;;5038053;28;20389;-56
2022/02/10 16:43:48;;;;;;;3.40;1.50;;;9.40;68.10;;;;;;5037689;28;20068;-53
2022/02/10 16:46:14;;;;;;;2.25;1.25;;;9.40;68.20;;;;;;5037760;28;20021;-55
2022/02/10 16:48:40;;;;;;;1.92;1.30;;;9.40;68.30;;;;;;5037935;28;20392;-54
2022/02/10 16:51:10;;;;;;;3.22;1.73;;;9.30;68.30;;;;;;5037836;28;20100;-56
2022/02/10 16:53:40;;;;;;;4.35;1.40;;;9.30;68.40;;;;;;5037685;28;20029;-57
2022/02/10 16:56:18;;;;;;;3.03;2.20;;;9.30;68.80;;;;;;5037990;28;20038;-55
2022/02/10 16:59:00;;;;;;;3.60;2.35;;;9.20;68.80;;;;;;5036665;28;20041;-56
2022/02/10 17:21:13;;;;;;;5.65;2.53;;;9.10;69.00;;;;;;5037300;28;20065;-55
2022/02/10 17:25:48;;;;;;;4.32;2.30;;;9.00;69.00;;;;;;5037675;28;20036;-55
2022/02/10 17:28:14;;;;;;;5.80;2.30;;;9.00;69.50;;;;;;5037571;28;20041;-55
2022/02/10 17:33:51;;;;;;;4.82;2.60;;;8.90;69.20;;;;;;5041218;28;20041;-55
2022/02/10 17:36:28;;;;;;;13.93;12.23;;;8.90;69.10;;;;;;5037078;28;20033;-54
2022/02/10 17:44:20;;;;;;;8.05;6.15;;;8.90;69.30;;;;;;5037150;28;20030;-55
2022/02/10 17:51:26;;;;;;;9.38;7.85;;;8.90;69.20;;;;;;5036438;28;20029;-56
2022/02/10 17:52:25;;;;;;;12.05;8.05;;;8.70;69.20;;;;;;5036843;28;20036;-56
2022/02/10 17:54:52;;;;;;;6.50;3.80;;;8.70;69.20;;;;;;5036438;28;20029;-56
2022/02/10 17:57:18;;;;;;;5.97;3.20;;;8.70;69.40;;;;;;5036327;28;20040;-55
2022/02/10 17:59:45;;;;;;;9.30;5.15;;;8.60;69.20;;;;;;5036493;28;20025;-57
2022/02/10 18:02:12;;;;;;;8.57;6.05;;;8.60;69.30;;;;;;5036775;28;20397;-56
2022/02/10 18:04:38;;;;;;;9.35;6.07;;;8.60;69.50;;;;;;5036683;28;20022;-56
2022/02/10 18:07:04;;;;;;;8.43;5.20;;;8.60;69.40;;;;;;5036573;28;20028;-55
2022/02/10 18:17:31;;;;;;;12.60;5.10;;;8.50;69.50;;;;;;5040269;28;20064;-55
2022/02/10 18:20:03;;;;;;;8.88;4.80;;;8.50;69.60;;;;;;5040005;28;20048;-56
2022/02/10 18:27:34;;;;;;;20.70;9.07;;;8.40;70.00;;;;;;5040112;28;20033;-56
2022/02/10 19:05:40;;;;;;;12.95;6.93;;;8.20;69.90;;;;;;5039264;28;20025;-57
2022/02/10 19:09:56;;;;;;;15.90;8.82;;;8.20;70.20;;;;;;5039035;28;20022;-55
2022/02/10 19:12:30;;;;;;;12.30;7.10;;;8.20;69.90;;;;;;5038743;28;20037;-55
2022/02/10 19:15:06;;;;;;;12.23;6.85;;;8.10;69.70;;;;;;5038578;28;20508;-56
2022/02/10 19:17:33;;;;;;;15.10;7.20;;;8.10;70.10;;;;;;5038856;28;20472;-56
2022/02/10 19:19:59;;;;;;;14.75;7.38;;;8.00;69.80;;;;;;5038670;28;20489;-54
2022/02/10 19:22:25;;;;;;;17.00;8.35;;;7.90;69.70;;;;;;5038586;28;20052;-57
2022/02/10 19:24:53;;;;;;;26.65;9.85;;;7.80;69.80;;;;;;5039077;28;20021;-56
2022/02/10 19:27:19;;;;;;;16.10;7.22;;;7.80;69.90;;;;;;5038140;28;20068;-55
2022/02/10 19:29:46;;;;;;;11.02;5.35;;;7.70;69.80;;;;;;5039007;28;20027;-55
2022/02/10 19:32:16;;;;;;;11.55;5.30;;;7.60;69.70;;;;;;5038622;28;20034;-55
2022/02/10 19:34:42;;;;;;;28.65;12.85;;;7.40;70.50;;;;;;5038801;28;20055;-55
2022/02/10 19:37:10;;;;;;;38.28;17.25;;;7.30;70.30;;;;;;5038510;28;20472;-54
2022/02/10 19:39:40;;;;;;;24.92;11.80;;;7.20;70.20;;;;;;5038513;28;20477;-56
2022/02/10 19:42:06;;;;;;;14.57;8.95;;;7.20;70.40;;;;;;5038684;28;20060;-56
2022/02/10 19:44:33;;;;;;;12.25;6.72;;;7.20;70.30;;;;;;5038524;28;20025;-55
2022/02/10 19:47:01;;;;;;;10.93;6.28;;;7.10;70.30;;;;;;5038581;28;20037;-54
2022/02/10 19:49:27;;;;;;;15.15;8.20;;;7.10;70.30;;;;;;5038197;28;20025;-54
2022/02/10 19:51:53;;;;;;;20.15;11.50;;;7.10;70.40;;;;;;5038286;28;20033;-55
2022/02/10 19:54:28;;;;;;;15.75;8.63;;;7.10;70.20;;;;;;5038152;28;20025;-53
2022/02/10 19:56:57;;;;;;;22.05;12.30;;;7.00;70.50;;;;;;5038306;28;20029;-55
2022/02/10 19:59:26;;;;;;;27.35;16.73;;;6.90;70.30;;;;;;5038306;28;20025;-56
2022/02/10 20:01:53;;;;;;;27.00;15.75;;;6.90;70.20;;;;;;5038308;28;20025;-56
2022/02/10 20:04:20;;;;;;;21.73;12.55;;;6.80;70.00;;;;;;5037953;28;20029;-54
2022/02/10 20:06:47;;;;;;;18.90;11.70;;;6.70;70.10;;;;;;5038083;28;20080;-51
2022/02/10 20:09:14;;;;;;;18.77;11.32;;;6.60;70.00;;;;;;5038234;28;20130;-55
2022/02/10 20:11:40;;;;;;;21.50;13.63;;;6.50;70.30;;;;;;5037982;28;20033;-52
2022/02/10 20:14:06;;;;;;;28.25;18.50;;;6.50;70.40;;;;;;5037963;28;20068;-55
2022/02/10 20:16:32;;;;;;;32.50;20.65;;;6.40;70.30;;;;;;5038084;28;20028;-55
2022/02/10 20:18:57;;;;;;;29.10;18.90;;;6.30;70.50;;;;;;5037907;28;20047;-54
2022/02/10 20:21:23;;;;;;;24.05;14.93;;;6.30;70.30;;;;;;5037882;28;20441;-56
2022/02/10 20:23:50;;;;;;;20.33;12.88;;;6.20;70.30;;;;;;5037932;28;20025;-54
2022/02/10 20:26:16;;;;;;;15.82;10.35;;;6.10;70.10;;;;;;5037931;28;20025;-53
2022/02/10 20:28:44;;;;;;;12.73;8.15;;;6.10;70.40;;;;;;5037759;28;20025;-53
2022/02/10 20:31:11;;;;;;;11.88;7.82;;;6.00;70.30;;;;;;5037633;28;20543;-53
2022/02/10 20:33:37;;;;;;;11.18;7.32;;;6.00;70.30;;;;;;5037776;28;20026;-56
2022/02/10 20:36:05;;;;;;;11.68;6.78;;;5.90;70.40;;;;;;5037524;28;20404;-53
2022/02/10 20:38:35;;;;;;;10.55;6.40;;;5.90;70.50;;;;;;5037573;28;20017;-54
2022/02/10 20:41:08;;;;;;;12.38;6.72;;;5.90;70.40;;;;;;5037526;28;20026;-53
2022/02/10 20:43:34;;;;;;;10.13;5.93;;;5.90;70.60;;;;;;5037470;28;20476;-54
2022/02/10 20:46:03;;;;;;;10.38;5.80;;;5.80;70.60;;;;;;5037532;28;20090;-52
2022/02/10 20:48:31;;;;;;;7.65;4.60;;;5.80;70.20;;;;;;5037599;28;20108;-56
2022/02/10 20:50:58;;;;;;;9.73;5.40;;;5.80;70.70;;;;;;5035984;28;20044;-53
2022/02/10 20:53:25;;;;;;;12.52;7.10;;;5.70;71.10;;;;;;5037603;28;20028;-55
2022/02/10 20:55:54;;;;;;;15.75;10.43;;;5.70;70.50;;;;;;5037717;28;20034;-51
2022/02/10 20:58:25;;;;;;;18.88;11.43;;;5.70;70.70;;;;;;5037817;28;20025;-55
2022/02/10 21:00:53;;;;;;;23.65;13.40;;;5.60;70.90;;;;;;5037124;28;20064;-53
2022/02/10 21:03:23;;;;;;;19.17;11.25;;;5.60;70.80;;;;;;5037177;28;20422;-50
2022/02/10 21:05:50;;;;;;;17.92;11.10;;;5.50;70.90;;;;;;5037354;28;20055;-54
2022/02/10 21:09:08;;;;;;;16.85;10.57;;;5.50;70.70;;;;;;5037339;28;20032;-54
2022/02/10 21:11:03;;;;;;;12.05;8.40;;;5.50;70.30;;;;;;5036568;28;20033;-54
2022/02/10 21:13:30;;;;;;;12.98;7.82;;;5.40;70.60;;;;;;5036977;28;20405;-54
2022/02/10 21:15:56;;;;;;;9.73;5.70;;;5.40;70.60;;;;;;5037283;28;20055;-54
2022/02/10 21:18:23;;;;;;;5.90;4.20;;;5.40;70.30;;;;;;5036842;28;20018;-52
2022/02/10 21:20:51;;;;;;;7.03;3.97;;;5.40;70.50;;;;;;5037462;28;20057;-54
2022/02/10 21:25:44;;;;;;;5.40;3.45;;;5.30;70.60;;;;;;5036639;28;20032;-57
2022/02/10 21:30:44;;;;;;;6.15;3.67;;;5.20;70.90;;;;;;5036860;28;20060;-55
2022/02/10 21:33:22;;;;;;;7.88;4.30;;;5.30;70.30;;;;;;5037064;28;20025;-55
2022/02/10 21:38:20;;;;;;;12.98;7.57;;;5.20;70.60;;;;;;5037373;28;20051;-53
2022/02/10 21:57:22;;;;;;;9.67;5.60;;;5.00;71.00;;;;;;5040383;28;20026;-57
2022/02/10 22:16:29;;;;;;;12.23;7.28;;;4.80;70.50;;;;;;5038634;28;20036;-55
2022/02/10 22:19:14;;;;;;;13.75;7.57;;;4.80;70.60;;;;;;5039175;28;20563;-54
2022/02/10 22:21:50;;;;;;;16.13;9.18;;;4.70;72.30;;;;;;5039137;28;20046;-54
2022/02/10 22:24:17;;;;;;;22.48;12.60;;;4.70;71.10;;;;;;5039136;28;20041;-52
2022/02/10 22:26:45;;;;;;;15.32;9.07;;;4.70;70.40;;;;;;5039958;28;20040;-56
2022/02/10 22:34:37;;;;;;;14.05;7.20;;;4.60;71.60;;;;;;5055756;28;20037;-56
2022/02/10 22:37:06;;;;;;;28.35;13.15;;;4.60;71.30;;;;;;5039989;28;20468;-51
2022/02/10 22:39:53;;;;;;;29.83;14.27;;;4.50;72.20;;;;;;5039959;28;20030;-51
2022/02/10 22:42:23;;;;;;;22.85;13.18;;;4.50;71.70;;;;;;5039821;28;20037;-54
2022/02/10 22:44:49;;;;;;;43.70;19.63;;;4.60;71.60;;;;;;5040102;28;20026;-53
2022/02/10 22:47:14;;;;;;;33.42;16.75;;;4.60;71.70;;;;;;5040082;28;20555;-52
2022/02/10 22:49:40;;;;;;;26.25;13.73;;;4.60;72.10;;;;;;5040375;28;20026;-51
2022/02/10 22:52:06;;;;;;;14.20;8.90;;;4.60;70.90;;;;;;5040044;28;20112;-55
2022/02/10 22:54:32;;;;;;;14.07;7.72;;;4.60;71.70;;;;;;5039608;28;20087;-53
2022/02/10 22:56:59;;;;;;;9.70;6.72;;;4.60;71.50;;;;;;5038561;28;20029;-53
2022/02/10 22:59:24;;;;;;;9.93;6.88;;;4.60;71.40;;;;;;5039865;28;20025;-55
2022/02/10 23:01:52;;;;;;;10.70;7.15;;;4.50;71.60;;;;;;5039682;28;20113;-53
2022/02/10 23:04:18;;;;;;;10.27;6.63;;;4.50;71.10;;;;;;5039350;28;20025;-54
2022/02/10 23:06:44;;;;;;;12.70;7.05;;;4.50;71.20;;;;;;5039580;28;20022;-53
2022/02/10 23:09:23;;;;;;;10.02;6.88;;;4.50;71.60;;;;;;5040004;28;20021;-51
2022/02/10 23:11:51;;;;;;;10.27;6.60;;;4.50;70.80;;;;;;5039556;28;20039;-53
2022/02/10 23:14:16;;;;;;;11.35;7.05;;;4.40;71.50;;;;;;5039667;28;20163;-55
2022/02/10 23:16:45;;;;;;;10.60;6.05;;;4.40;71.90;;;;;;5039279;28;20037;-54
2022/02/10 23:19:12;;;;;;;11.18;6.97;;;4.40;71.30;;;;;;5039587;28;20030;-52
2022/02/10 23:21:38;;;;;;;11.40;6.95;;;4.30;71.70;;;;;;5039200;28;20054;-52
2022/02/10 23:24:05;;;;;;;11.23;7.05;;;4.30;71.90;;;;;;5039223;28;20032;-54
2022/02/10 23:26:32;;;;;;;11.90;7.30;;;4.30;71.60;;;;;;5039305;28;20030;-55
2022/02/10 23:28:58;;;;;;;10.45;6.68;;;4.30;70.80;;;;;;5039181;28;20140;-51
2022/02/10 23:31:27;;;;;;;9.73;6.57;;;4.30;71.70;;;;;;5039160;28;20088;-53
2022/02/10 23:33:57;;;;;;;9.57;6.47;;;4.30;71.40;;;;;;5039506;28;20040;-55
2022/02/10 23:37:06;;;;;;;10.77;5.93;;;4.30;71.70;;;;;;5039109;28;20148;-55
2022/02/10 23:39:24;;;;;;;11.82;6.40;;;4.30;71.50;;;;;;5041716;28;20037;-53
2022/02/10 23:42:12;;;;;;;10.30;6.13;;;4.30;71.80;;;;;;5038965;28;20029;-53
2022/02/10 23:44:45;;;;;;;10.63;5.00;;;4.30;71.60;;;;;;5038825;28;20037;-54
2022/02/10 23:47:18;;;;;;;10.50;6.97;;;4.30;71.60;;;;;;5038989;28;20101;-55
2022/02/10 23:49:45;;;;;;;8.85;5.80;;;4.20;71.60;;;;;;5038596;28;20489;-56
2022/02/10 23:52:14;;;;;;;8.35;5.50;;;4.20;71.40;;;;;;5038832;28;20034;-51
2022/02/10 23:54:42;;;;;;;11.02;6.28;;;4.20;71.50;;;;;;5038680;28;20481;-55
2022/02/10 23:57:16;;;;;;;8.77;5.35;;;4.20;71.30;;;;;;5039010;28;20030;-53
